createdAt,value
2016-08-14T00:00:58.234Z,76.17
2016-08-14T00:01:57.569Z,75.98
2016-08-14T00:02:57.609Z,76.07
2016-08-14T00:03:57.623Z,75.59
2016-08-14T00:04:57.647Z,75.59
2016-08-14T00:05:57.683Z,75.4
2016-08-14T00:06:57.702Z,75.65
2016-08-14T00:07:57.732Z,75.31
2016-08-14T00:08:57.756Z,75.17
2016-08-14T00:09:57.791Z,75.02
2016-08-14T00:10:57.812Z,74.92
2016-08-14T00:12:12.759Z,75.4
2016-08-14T00:12:57.866Z,74.79
2016-08-14T00:13:57.895Z,75.79
2016-08-14T00:14:58.613Z,75.4
2016-08-14T00:15:57.944Z,75.65
2016-08-14T00:16:57.970Z,76.17
2016-08-14T00:17:58.000Z,76.23
2016-08-14T00:18:58.028Z,76.23
2016-08-14T00:19:58.052Z,76.14
2016-08-14T00:20:58.079Z,76.42
2016-08-14T00:21:58.112Z,75.75
2016-08-14T00:22:58.129Z,75.94
2016-08-14T00:23:58.156Z,76.42
2016-08-14T00:24:58.184Z,76.81
2016-08-14T00:25:58.210Z,76.61
2016-08-14T00:26:58.251Z,75.94
2016-08-14T00:28:13.200Z,77
2016-08-14T00:29:58.319Z,76.81
2016-08-14T00:30:58.348Z,77.09
2016-08-14T00:31:58.376Z,76.42
2016-08-14T00:32:58.399Z,76.42
2016-08-14T00:33:58.428Z,75.94
2016-08-14T00:34:59.153Z,76.9
2016-08-14T00:35:58.481Z,76.23
2016-08-14T00:36:58.505Z,76.81
2016-08-14T00:37:58.532Z,76.42
2016-08-14T00:38:58.558Z,76.42
2016-08-14T00:39:58.588Z,76.71
2016-08-14T00:40:58.609Z,76.52
2016-08-14T00:41:58.646Z,76.23
2016-08-14T00:43:13.592Z,75.65
2016-08-14T00:43:58.694Z,76.71
2016-08-14T00:44:58.730Z,75.75
2016-08-14T00:45:58.749Z,75.65
2016-08-14T00:46:58.775Z,77.09
2016-08-14T00:47:58.822Z,76.32
2016-08-14T00:48:58.825Z,76.81
2016-08-14T00:49:58.901Z,77.09
2016-08-14T00:50:58.880Z,76.81
2016-08-14T00:51:58.904Z,77.19
2016-08-14T00:52:58.940Z,77.19
2016-08-14T00:53:58.959Z,77.38
2016-08-14T00:54:58.986Z,77.58
2016-08-14T00:55:59.016Z,76.61
2016-08-14T00:56:59.094Z,77.09
2016-08-14T00:57:59.065Z,77
2016-08-14T00:58:59.095Z,76.9
2016-08-14T00:59:59.117Z,76.9
2016-08-14T01:00:59.151Z,75.65
2016-08-14T01:01:59.174Z,75.94
2016-08-14T01:02:59.197Z,76.42
2016-08-14T01:03:59.227Z,77
2016-08-14T01:04:59.252Z,76.52
2016-08-14T01:05:59.282Z,75.75
2016-08-14T01:06:59.306Z,76.9
2016-08-14T01:07:59.333Z,76.52
2016-08-14T01:08:59.364Z,77
2016-08-14T01:09:59.388Z,76.61
2016-08-14T01:10:59.416Z,77.09
2016-08-14T01:11:59.445Z,76.42
2016-08-14T01:12:59.464Z,76.71
2016-08-14T01:13:59.491Z,76.9
2016-08-14T01:15:14.444Z,77.09
2016-08-14T01:15:59.544Z,77.09
2016-08-14T01:16:59.577Z,76.81
2016-08-14T01:17:59.598Z,77.09
2016-08-14T01:18:59.627Z,76.71
2016-08-14T01:19:59.651Z,76.96
2016-08-14T01:20:59.678Z,77.63
2016-08-14T01:21:59.701Z,76.96
2016-08-14T01:22:59.736Z,76.67
2016-08-14T01:23:59.760Z,76.86
2016-08-14T01:24:59.796Z,76.77
2016-08-14T01:25:59.811Z,76.67
2016-08-14T01:26:59.844Z,76.86
2016-08-14T01:27:59.864Z,76.67
2016-08-14T01:28:59.890Z,77.15
2016-08-14T01:29:59.916Z,76.86
2016-08-14T01:31:14.872Z,77.34
2016-08-14T01:31:59.981Z,77.06
2016-08-14T01:33:00.020Z,77.25
2016-08-14T01:34:00.022Z,77.53
2016-08-14T01:35:00.054Z,78.21
2016-08-14T01:36:00.077Z,77.78
2016-08-14T01:37:00.107Z,78.08
2016-08-14T01:38:00.132Z,77.98
2016-08-14T01:39:00.160Z,78.08
2016-08-14T01:40:00.180Z,77.5
2016-08-14T01:41:00.214Z,77.88
2016-08-14T01:42:00.235Z,78.36
2016-08-14T01:43:00.265Z,77.78
2016-08-14T01:44:00.291Z,78.17
2016-08-14T01:45:00.318Z,78.36
2016-08-14T01:46:00.344Z,78.45
2016-08-14T01:47:15.293Z,77.98
2016-08-14T01:48:00.398Z,77.88
2016-08-14T01:49:00.427Z,78.94
2016-08-14T01:50:00.449Z,78.27
2016-08-14T01:51:00.476Z,78.75
2016-08-14T01:52:00.504Z,78.84
2016-08-14T01:53:00.529Z,78.84
2016-08-14T01:54:00.559Z,78.84
2016-08-14T01:55:00.586Z,78.94
2016-08-14T01:56:00.662Z,79.71
2016-08-14T01:57:01.336Z,78.9
2016-08-14T01:58:00.715Z,79.13
2016-08-14T01:59:00.687Z,79.09
2016-08-14T02:01:00.746Z,79.22
2016-08-14T02:02:00.772Z,78.99
2016-08-14T02:03:15.723Z,79.47
2016-08-14T02:05:01.557Z,79.96
2016-08-14T02:06:00.874Z,79.47
2016-08-14T02:07:00.901Z,79.67
2016-08-14T02:08:00.927Z,79.57
2016-08-14T02:09:00.948Z,79.57
2016-08-14T02:10:01.672Z,79.57
2016-08-14T02:11:01.005Z,79.47
2016-08-14T02:12:01.043Z,79.86
2016-08-14T02:13:01.069Z,80.34
2016-08-14T02:14:01.084Z,80.34
2016-08-14T02:15:01.110Z,80.05
2016-08-14T02:17:01.161Z,80.05
2016-08-14T02:18:16.112Z,80.05
2016-08-14T02:19:01.216Z,80.09
2016-08-14T02:21:01.268Z,79.67
2016-08-14T02:22:01.298Z,79.52
2016-08-14T02:23:01.316Z,79.03
2016-08-14T02:24:01.346Z,79.38
2016-08-14T02:25:01.375Z,79.03
2016-08-14T02:26:01.401Z,78.94
2016-08-14T02:27:01.424Z,79.22
2016-08-14T02:28:01.452Z,79.13
2016-08-14T02:29:01.481Z,78.65
2016-08-14T02:30:01.504Z,78.94
2016-08-14T02:31:01.535Z,78.94
2016-08-14T02:32:01.560Z,79.13
2016-08-14T02:33:01.589Z,78.55
2016-08-14T02:34:01.614Z,78.65
2016-08-14T02:35:01.635Z,78.27
2016-08-14T02:36:01.666Z,78.55
2016-08-14T02:37:01.694Z,78.45
2016-08-14T02:38:01.714Z,78.08
2016-08-14T02:39:01.741Z,78.17
2016-08-14T02:40:01.768Z,78.27
2016-08-14T02:41:01.797Z,78.55
2016-08-14T02:42:01.825Z,78.75
2016-08-14T02:43:01.849Z,78.45
2016-08-14T02:44:01.875Z,78.94
2016-08-14T02:45:01.906Z,78.94
2016-08-14T02:46:01.931Z,78.75
2016-08-14T02:47:01.955Z,78.75
2016-08-14T02:48:01.977Z,78.65
2016-08-14T02:49:02.008Z,78.55
2016-08-14T02:50:16.955Z,79.03
2016-08-14T02:51:02.061Z,79.22
2016-08-14T02:52:02.086Z,78.84
2016-08-14T02:53:02.115Z,78.84
2016-08-14T02:54:02.143Z,79.22
2016-08-14T02:55:02.164Z,78.94
2016-08-14T02:56:02.193Z,78.65
2016-08-14T02:57:02.216Z,79.42
2016-08-14T02:58:02.246Z,79.22
2016-08-14T02:59:02.282Z,78.94
2016-08-14T03:00:02.299Z,78.84
2016-08-14T03:01:02.322Z,79.52
2016-08-14T03:02:02.350Z,79.22
2016-08-14T03:03:02.376Z,79.22
2016-08-14T03:04:02.406Z,79.03
2016-08-14T03:05:02.428Z,79.03
2016-08-14T03:06:17.378Z,79.52
2016-08-14T03:07:02.484Z,78.65
2016-08-14T03:08:02.508Z,79.32
2016-08-14T03:09:02.535Z,79.84
2016-08-14T03:10:02.561Z,79.36
2016-08-14T03:11:02.587Z,79.03
2016-08-14T03:12:02.618Z,79.17
2016-08-14T03:13:02.644Z,78.98
2016-08-14T03:14:02.663Z,79.17
2016-08-14T03:15:02.691Z,79.8
2016-08-14T03:16:02.716Z,79.84
2016-08-14T03:17:02.746Z,80.22
2016-08-14T03:18:02.790Z,80.09
2016-08-14T03:19:02.795Z,80.09
2016-08-14T03:20:02.829Z,80.09
2016-08-14T03:21:02.851Z,80.38
2016-08-14T03:22:17.801Z,80.28
2016-08-14T03:23:02.901Z,80.38
2016-08-14T03:24:02.928Z,80.66
2016-08-14T03:25:02.959Z,80.57
2016-08-14T03:26:02.980Z,80.47
2016-08-14T03:27:03.007Z,80.8
2016-08-14T03:28:03.036Z,80.86
2016-08-14T03:29:03.061Z,81.05
2016-08-14T03:30:03.085Z,80.76
2016-08-14T03:31:03.119Z,80.66
2016-08-14T03:32:03.148Z,81.15
2016-08-14T03:33:03.164Z,80.86
2016-08-14T03:34:03.194Z,80.38
2016-08-14T03:35:03.221Z,80.86
2016-08-14T03:36:03.245Z,80.86
2016-08-14T03:37:03.277Z,80.38
2016-08-14T03:38:18.223Z,80.76
2016-08-14T03:39:03.328Z,80.28
2016-08-14T03:40:03.350Z,80.66
2016-08-14T03:41:03.377Z,80.19
2016-08-14T03:42:03.404Z,80.76
2016-08-14T03:43:03.431Z,81.05
2016-08-14T03:44:03.453Z,80.96
2016-08-14T03:45:03.485Z,80.86
2016-08-14T03:46:03.507Z,80.57
2016-08-14T03:47:03.539Z,80.38
2016-08-14T03:48:03.561Z,81.34
2016-08-14T03:49:03.587Z,81.15
2016-08-14T03:50:03.616Z,80.96
2016-08-14T03:51:03.646Z,81.05
2016-08-14T03:52:03.670Z,80.86
2016-08-14T03:53:18.620Z,80.42
2016-08-14T03:54:03.725Z,80.42
2016-08-14T03:55:03.754Z,80.71
2016-08-14T03:56:03.775Z,80.61
2016-08-14T03:57:03.805Z,80.71
2016-08-14T03:58:03.823Z,80.8
2016-08-14T03:59:03.851Z,80.8
2016-08-14T04:00:03.882Z,80.51
2016-08-14T04:01:03.910Z,80.32
2016-08-14T04:02:03.980Z,81.15
2016-08-14T04:03:03.963Z,80.61
2016-08-14T04:04:03.980Z,80.51
2016-08-14T04:05:04.011Z,80.9
2016-08-14T04:06:04.036Z,80.71
2016-08-14T04:11:04.173Z,80.42
2016-08-14T04:12:04.198Z,80.66
2016-08-14T04:13:04.220Z,80.9
2016-08-14T04:14:04.254Z,80.42
2016-08-14T04:15:04.280Z,81.24
2016-08-14T04:16:04.298Z,80.96
2016-08-14T04:17:04.327Z,81.05
2016-08-14T04:18:04.372Z,81.38
2016-08-14T04:19:04.381Z,81.34
2016-08-14T04:20:04.406Z,81.24
2016-08-14T04:21:04.434Z,80.28
2016-08-14T04:22:04.457Z,81.48
2016-08-14T04:23:05.188Z,81.09
2016-08-14T04:24:04.517Z,81.43
2016-08-14T04:25:19.463Z,81.28
2016-08-14T04:26:04.565Z,81.09
2016-08-14T04:27:04.597Z,81.38
2016-08-14T04:29:04.646Z,80.99
2016-08-14T04:30:04.674Z,80.8
2016-08-14T04:31:04.698Z,80.61
2016-08-14T04:32:04.727Z,80.8
2016-08-14T04:33:04.747Z,80.71
2016-08-14T04:34:04.773Z,80.71
2016-08-14T04:35:04.799Z,81.19
2016-08-14T04:36:04.833Z,80.42
2016-08-14T04:37:04.849Z,80.9
2016-08-14T04:38:04.878Z,80.71
2016-08-14T04:39:04.904Z,80.61
2016-08-14T04:40:04.929Z,80.8
2016-08-14T04:41:19.884Z,80.61
2016-08-14T04:42:04.991Z,80.71
2016-08-14T04:43:05.013Z,80.42
2016-08-14T04:44:05.038Z,80.22
2016-08-14T04:45:05.080Z,80.22
2016-08-14T04:46:05.784Z,80.71
2016-08-14T04:47:05.116Z,80.71
2016-08-14T04:48:05.144Z,80.61
2016-08-14T04:49:05.173Z,80.8
2016-08-14T04:50:05.194Z,80.96
2016-08-14T04:51:05.235Z,80.51
2016-08-14T04:52:05.250Z,81.38
2016-08-14T04:53:05.272Z,81.05
2016-08-14T04:54:05.310Z,80.51
2016-08-14T04:55:05.328Z,80.51
2016-08-14T04:56:05.357Z,80.32
2016-08-14T04:57:20.306Z,80.71
2016-08-14T04:58:05.406Z,80.57
2016-08-14T04:59:05.432Z,80.86
2016-08-14T05:00:05.460Z,80.96
2016-08-14T05:01:05.537Z,80.38
2016-08-14T05:02:05.517Z,79.94
2016-08-14T05:03:05.541Z,79.07
2016-08-14T05:04:05.565Z,78.4
2016-08-14T05:05:05.597Z,78.06
2016-08-14T05:06:05.618Z,74.73
2016-08-14T05:07:05.699Z,73.26
2016-08-14T05:08:05.673Z,70.79
2016-08-14T05:09:05.701Z,69.48
2016-08-14T05:10:05.725Z,67.78
2016-08-14T05:11:05.758Z,67.2
2016-08-14T05:12:05.845Z,65.2
2016-08-14T05:13:20.738Z,63.34
2016-08-14T05:14:05.846Z,63.43
2016-08-14T05:15:05.870Z,62.4
2016-08-14T05:16:05.903Z,60.79
2016-08-14T05:17:05.929Z,61.63
2016-08-14T05:18:05.962Z,62.31
2016-08-14T05:19:05.991Z,62.47
2016-08-14T05:20:06.024Z,62.76
2016-08-14T05:21:06.044Z,63.53
2016-08-14T05:22:06.082Z,63.7
2016-08-14T05:23:06.111Z,65.05
2016-08-14T05:24:06.138Z,65.69
2016-08-14T05:25:06.171Z,66.14
2016-08-14T05:26:06.196Z,67.07
2016-08-14T05:27:06.223Z,67.74
2016-08-14T05:28:21.197Z,69.29
2016-08-14T05:29:06.292Z,70.12
2016-08-14T05:31:06.345Z,70.76
2016-08-14T05:32:06.369Z,71.04
2016-08-14T05:33:06.396Z,71.81
2016-08-14T05:34:06.427Z,72.17
2016-08-14T05:35:06.456Z,72.17
2016-08-14T05:36:06.491Z,72.74
2016-08-14T05:37:06.511Z,71.14
2016-08-14T05:38:07.241Z,69.45
2016-08-14T05:39:06.575Z,68.04
2016-08-14T05:40:06.596Z,65.2
2016-08-14T05:41:06.625Z,62.47
2016-08-14T05:43:06.694Z,57.5
2016-08-14T05:44:06.720Z,54.94
2016-08-14T05:45:06.745Z,53.63
2016-08-14T05:46:06.784Z,53.8
2016-08-14T05:47:06.814Z,53.51
2016-08-14T05:48:06.843Z,55.13
2016-08-14T05:49:06.888Z,57.08
2016-08-14T05:50:07.602Z,58.04
2016-08-14T05:51:06.940Z,58.5
2016-08-14T05:52:06.967Z,60.11
2016-08-14T05:53:07.001Z,61.54
2016-08-14T05:54:07.036Z,62.28
2016-08-14T05:55:07.067Z,62.63
2016-08-14T05:56:07.092Z,63.95
2016-08-14T05:57:07.125Z,63.09
2016-08-14T05:58:07.160Z,63.18
2016-08-14T05:59:07.186Z,62.92
2016-08-14T06:00:22.146Z,59.86
2016-08-14T06:01:07.254Z,59.31
2016-08-14T06:02:07.287Z,58.57
2016-08-14T06:03:07.313Z,56.98
2016-08-14T06:04:07.348Z,56.7
2016-08-14T06:05:08.076Z,55.27
2016-08-14T06:06:07.413Z,56.14
2016-08-14T06:07:07.441Z,55.53
2016-08-14T06:08:07.482Z,56.5
2016-08-14T06:09:07.504Z,56.11
2016-08-14T06:10:07.535Z,55.36
2016-08-14T06:11:07.568Z,57.05
2016-08-14T06:12:08.295Z,57.89
2016-08-14T06:13:07.641Z,57.89
2016-08-14T06:14:07.677Z,57.92
2016-08-14T06:15:07.697Z,58.67
2016-08-14T06:16:22.705Z,59.12
2016-08-14T06:18:07.794Z,58.93
2016-08-14T06:19:07.827Z,56.76
2016-08-14T06:20:07.861Z,55.73
2016-08-14T06:21:07.890Z,54.3
2016-08-14T06:22:07.936Z,54.13
2016-08-14T06:23:07.954Z,55.63
2016-08-14T06:24:07.990Z,54.85
2016-08-14T06:25:08.026Z,54.69
2016-08-14T06:26:08.057Z,54.17
2016-08-14T06:27:08.087Z,54.21
2016-08-14T06:28:08.118Z,53.33
2016-08-14T06:30:08.191Z,52.32
2016-08-14T06:31:08.223Z,53.17
2016-08-14T06:32:23.177Z,52.2
2016-08-14T06:33:08.288Z,52.2
2016-08-14T06:34:08.323Z,50.99
2016-08-14T06:35:08.353Z,50.04
2016-08-14T06:36:08.385Z,48.9
2016-08-14T06:37:08.421Z,49.1
2016-08-14T06:38:08.454Z,48.05
2016-08-14T06:39:08.495Z,46.25
2016-08-14T06:40:08.526Z,45.18
2016-08-14T06:41:08.554Z,46.06
2016-08-14T06:42:08.595Z,47.3
2016-08-14T06:43:08.625Z,47.93
2016-08-14T06:44:08.656Z,47.57
2016-08-14T06:45:08.691Z,48.88
2016-08-14T06:46:08.731Z,48.88
2016-08-14T06:47:08.759Z,50.87
2016-08-14T06:48:23.721Z,52.68
2016-08-14T06:49:08.830Z,53.43
2016-08-14T06:50:08.869Z,53.14
2016-08-14T06:51:08.895Z,52.85
2016-08-14T06:52:08.936Z,52.85
2016-08-14T06:53:08.962Z,53.23
2016-08-14T06:54:08.999Z,52.68
2016-08-14T06:55:09.033Z,52.17
2016-08-14T06:56:09.067Z,52.49
2016-08-14T06:57:09.098Z,52.39
2016-08-14T06:58:09.137Z,51.81
2016-08-14T06:59:09.165Z,52.49
2016-08-14T07:01:09.238Z,52.1
2016-08-14T07:02:09.270Z,50.67
2016-08-14T07:03:24.228Z,47.91
2016-08-14T07:04:09.337Z,48.66
2016-08-14T07:05:09.367Z,49.24
2016-08-14T07:06:09.406Z,49.8
2016-08-14T07:07:09.432Z,51.13
2016-08-14T07:08:09.465Z,51.52
2016-08-14T07:09:09.515Z,51.98
2016-08-14T07:10:09.534Z,53.04
2016-08-14T07:11:09.570Z,54.63
2016-08-14T07:12:09.605Z,55.29
2016-08-14T07:13:09.640Z,56.41
2016-08-14T07:14:09.671Z,56.99
2016-08-14T07:16:09.787Z,54.53
2016-08-14T07:17:09.773Z,54.27
2016-08-14T07:18:09.806Z,53.99
2016-08-14T07:19:09.837Z,53.14
2016-08-14T07:20:09.873Z,52.46
2016-08-14T07:22:09.984Z,52.08
2016-08-14T07:23:09.966Z,50.84
2016-08-14T07:24:10.006Z,51.9
2016-08-14T07:25:10.045Z,53.57
2016-08-14T07:26:10.070Z,54.22
2016-08-14T07:27:10.099Z,53.55
2016-08-14T07:28:10.132Z,53.67
2016-08-14T07:29:10.175Z,53.19
2016-08-14T07:30:10.201Z,52.14
2016-08-14T07:31:10.228Z,51.98
2016-08-14T07:32:10.265Z,50.52
2016-08-14T07:33:10.301Z,50.35
2016-08-14T07:34:10.330Z,50.26
2016-08-14T07:35:25.289Z,50.62
2016-08-14T07:36:10.397Z,50.79
2016-08-14T07:37:10.426Z,52.05
2016-08-14T07:38:10.464Z,53.83
2016-08-14T07:39:10.498Z,55.04
2016-08-14T07:40:10.528Z,55.9
2016-08-14T07:41:10.564Z,54.65
2016-08-14T07:42:10.594Z,53.74
2016-08-14T07:43:10.623Z,52.92
2016-08-14T07:44:10.664Z,52.53
2016-08-14T07:45:10.689Z,52.41
2016-08-14T07:46:10.731Z,50.6
2016-08-14T07:48:10.797Z,50.76
2016-08-14T07:49:10.821Z,50.38
2016-08-14T07:50:10.854Z,49.85
2016-08-14T07:51:25.817Z,50.5
2016-08-14T07:52:10.921Z,50.67
2016-08-14T07:54:10.986Z,48.79
2016-08-14T07:55:11.016Z,48.88
2016-08-14T07:56:11.057Z,49
2016-08-14T07:57:11.087Z,47.64
2016-08-14T07:58:11.117Z,48.27
2016-08-14T07:59:11.157Z,45.21
2016-08-14T08:00:11.185Z,42.54
2016-08-14T08:01:11.220Z,42.27
2016-08-14T08:02:11.254Z,43.24
2016-08-14T08:03:11.284Z,42.54
2016-08-14T08:04:11.318Z,43.01
2016-08-14T08:05:11.349Z,45.41
2016-08-14T08:06:11.392Z,45.48
2016-08-14T08:07:26.344Z,45.54
2016-08-14T08:08:11.449Z,44.49
2016-08-14T08:09:11.486Z,44.98
2016-08-14T08:10:11.521Z,45.47
2016-08-14T08:11:11.549Z,45.37
2016-08-14T08:12:11.586Z,46.87
2016-08-14T08:13:11.616Z,46.87
2016-08-14T08:14:11.650Z,47.45
2016-08-14T08:15:11.695Z,48.37
2016-08-14T08:16:11.773Z,47.43
2016-08-14T08:17:11.753Z,47.5
2016-08-14T08:18:11.792Z,47.5
2016-08-14T08:19:11.820Z,47.24
2016-08-14T08:20:11.850Z,47.14
2016-08-14T08:21:11.886Z,47.64
2016-08-14T08:22:11.925Z,45.73
2016-08-14T08:23:26.878Z,44.23
2016-08-14T08:24:11.988Z,44.23
2016-08-14T08:25:12.020Z,43.84
2016-08-14T08:26:12.051Z,43.66
2016-08-14T08:27:12.084Z,44.42
2016-08-14T08:28:12.123Z,44.2
2016-08-14T08:29:12.154Z,43.26
2016-08-14T08:30:12.188Z,43.18
2016-08-14T08:31:12.218Z,42.99
2016-08-14T08:32:12.251Z,41.64
2016-08-14T08:33:12.283Z,41.01
2016-08-14T08:34:12.319Z,41.3
2016-08-14T08:35:12.354Z,42.25
2016-08-14T08:37:12.414Z,44.32
2016-08-14T08:38:27.377Z,43.74
2016-08-14T08:40:12.516Z,44.13
2016-08-14T08:42:12.581Z,45.39
2016-08-14T08:43:12.620Z,44.88
2016-08-14T08:44:12.647Z,45.64
2016-08-14T08:45:12.690Z,46
2016-08-14T08:46:12.712Z,47.14
2016-08-14T08:47:12.749Z,45.51
2016-08-14T08:48:12.783Z,45.25
2016-08-14T08:49:12.815Z,44.47
2016-08-14T08:50:12.846Z,44.78
2016-08-14T08:51:12.885Z,43.84
2016-08-14T08:52:12.915Z,44.4
2016-08-14T08:53:12.952Z,46.67
2016-08-14T08:54:12.980Z,46.58
2016-08-14T08:55:13.701Z,47.33
2016-08-14T08:56:13.042Z,47.16
2016-08-14T08:57:13.078Z,47.6
2016-08-14T08:58:13.116Z,48.76
2016-08-14T09:00:13.175Z,48.18
2016-08-14T09:01:13.208Z,49.05
2016-08-14T09:02:13.240Z,49.15
2016-08-14T09:03:13.269Z,50.26
2016-08-14T09:04:13.300Z,50.35
2016-08-14T09:05:13.329Z,49.8
2016-08-14T09:07:13.403Z,49.05
2016-08-14T09:09:13.454Z,48.18
2016-08-14T09:10:28.415Z,46.58
2016-08-14T09:11:13.518Z,46.7
2016-08-14T09:12:13.551Z,45.27
2016-08-14T09:13:13.582Z,45.37
2016-08-14T09:14:13.622Z,45.27
2016-08-14T09:15:13.647Z,45.54
2016-08-14T09:16:13.677Z,46.02
2016-08-14T09:17:13.712Z,45.25
2016-08-14T09:18:13.743Z,45.54
2016-08-14T09:19:13.775Z,47.09
2016-08-14T09:20:13.803Z,45.27
2016-08-14T09:21:13.840Z,44.32
2016-08-14T09:22:13.881Z,45.39
2016-08-14T09:23:13.905Z,44.51
2016-08-14T09:25:14.021Z,46.67
2016-08-14T09:26:29.578Z,47.36
2016-08-14T09:27:14.033Z,47.04
2016-08-14T09:29:14.096Z,47.26
2016-08-14T09:30:14.127Z,46.31
2016-08-14T09:31:14.163Z,45.73
2016-08-14T09:32:14.195Z,45.37
2016-08-14T09:33:14.220Z,46.8
2016-08-14T09:34:14.258Z,45.27
2016-08-14T09:35:14.287Z,44.68
2016-08-14T09:36:14.324Z,43.64
2016-08-14T09:37:14.355Z,43.54
2016-08-14T09:38:14.389Z,43.45
2016-08-14T09:40:14.449Z,44.13
2016-08-14T09:42:29.441Z,45.92
2016-08-14T09:44:14.576Z,47.14
2016-08-14T09:45:14.613Z,47.72
2016-08-14T09:46:14.654Z,47.74
2016-08-14T09:47:14.678Z,46.31
2016-08-14T09:48:14.708Z,45.27
2016-08-14T09:49:14.739Z,44.59
2016-08-14T09:50:14.768Z,45.1
2016-08-14T09:51:14.803Z,44.32
2016-08-14T09:52:14.841Z,43.37
2016-08-14T09:53:14.871Z,43.01
2016-08-14T09:54:14.906Z,42.15
2016-08-14T09:55:14.936Z,42.25
2016-08-14T09:56:14.969Z,42.95
2016-08-14T09:57:15.000Z,42.95
2016-08-14T09:58:29.957Z,42.56
2016-08-14T10:00:15.095Z,41.42
2016-08-14T10:01:15.134Z,41.51
2016-08-14T10:02:15.162Z,41.39
2016-08-14T10:03:15.193Z,40.91
2016-08-14T10:04:15.228Z,42.08
2016-08-14T10:05:15.274Z,44.05
2016-08-14T10:06:15.290Z,42.6
2016-08-14T10:07:15.320Z,42.52
2016-08-14T10:08:15.357Z,42.52
2016-08-14T10:09:15.387Z,42.61
2016-08-14T10:10:15.419Z,43.3
2016-08-14T10:11:15.451Z,42.61
2016-08-14T10:12:15.482Z,42.83
2016-08-14T10:13:30.442Z,42.74
2016-08-14T10:16:15.615Z,40.73
2016-08-14T10:17:15.644Z,41.59
2016-08-14T10:18:16.381Z,42.13
2016-08-14T10:19:15.711Z,43.9
2016-08-14T10:20:15.830Z,41.69
2016-08-14T10:21:15.781Z,41.71
2016-08-14T10:22:15.815Z,41.59
2016-08-14T10:23:15.846Z,42.83
2016-08-14T10:24:15.932Z,42.64
2016-08-14T10:25:15.962Z,42.74
2016-08-14T10:26:15.940Z,42.71
2016-08-14T10:27:15.974Z,42.44
2016-08-14T10:28:16.009Z,41.78
2016-08-14T10:29:16.039Z,41.96
2016-08-14T10:30:16.069Z,43.95
2016-08-14T10:31:16.101Z,43.95
2016-08-14T10:32:16.138Z,43.66
2016-08-14T10:33:16.164Z,44.61
2016-08-14T10:34:16.203Z,44.68
2016-08-14T10:35:16.234Z,44.42
2016-08-14T10:36:16.268Z,45.2
2016-08-14T10:37:16.291Z,46.14
2016-08-14T10:38:16.338Z,46.6
2016-08-14T10:39:16.360Z,47.26
2016-08-14T10:40:16.387Z,47.36
2016-08-14T10:41:16.422Z,47.74
2016-08-14T10:42:16.456Z,47.94
2016-08-14T10:43:16.481Z,49.54
2016-08-14T10:44:16.522Z,49.24
2016-08-14T10:45:31.475Z,49.15
2016-08-14T10:46:16.583Z,49.05
2016-08-14T10:47:16.616Z,49.44
2016-08-14T10:48:16.643Z,49.15
2016-08-14T10:49:16.678Z,48.69
2016-08-14T10:50:16.700Z,49.37
2016-08-14T10:51:16.734Z,49.85
2016-08-14T10:52:16.769Z,49.27
2016-08-14T10:53:16.795Z,48.97
2016-08-14T10:54:16.830Z,49.07
2016-08-14T10:55:16.866Z,49.15
2016-08-14T10:56:16.890Z,49.27
2016-08-14T10:57:17.614Z,49.7
2016-08-14T11:01:31.969Z,49.15
2016-08-14T11:02:17.075Z,49.05
2016-08-14T11:03:17.109Z,48.37
2016-08-14T11:04:17.139Z,48.47
2016-08-14T11:05:17.177Z,47.81
2016-08-14T11:06:17.201Z,48.11
2016-08-14T11:07:17.232Z,48.01
2016-08-14T11:08:17.261Z,47.81
2016-08-14T11:09:17.295Z,47.84
2016-08-14T11:10:17.327Z,47.26
2016-08-14T11:11:17.348Z,46.97
2016-08-14T11:12:17.387Z,47.45
2016-08-14T11:13:17.414Z,46.31
2016-08-14T11:14:17.458Z,46.77
2016-08-14T11:15:17.472Z,47.36
2016-08-14T11:16:17.509Z,47.43
2016-08-14T11:17:32.460Z,47.72
2016-08-14T11:18:17.565Z,47.26
2016-08-14T11:19:17.596Z,47.19
2016-08-14T11:20:17.631Z,46.92
2016-08-14T11:21:17.668Z,46.99
2016-08-14T11:22:17.711Z,47.02
2016-08-14T11:23:17.723Z,46.14
2016-08-14T11:24:17.754Z,46.24
2016-08-14T11:25:17.788Z,46.19
2016-08-14T11:26:17.812Z,47.24
2016-08-14T11:27:17.846Z,47.81
2016-08-14T11:28:17.877Z,47.14
2016-08-14T11:29:17.911Z,47.74
2016-08-14T11:31:17.970Z,47.84
2016-08-14T11:32:17.998Z,47.45
2016-08-14T11:33:32.954Z,46.97
2016-08-14T11:34:18.060Z,47.06
2016-08-14T11:35:18.091Z,47.38
2016-08-14T11:36:18.123Z,47.36
2016-08-14T11:37:18.149Z,46.51
2016-08-14T11:38:18.189Z,46.77
2016-08-14T11:39:18.215Z,47.33
2016-08-14T11:40:18.241Z,46.77
2016-08-14T11:41:18.276Z,47.06
2016-08-14T11:42:18.309Z,47.36
2016-08-14T11:43:18.333Z,47.36
2016-08-14T11:44:18.365Z,47.16
2016-08-14T11:45:18.399Z,47.06
2016-08-14T11:46:18.427Z,46.29
2016-08-14T11:47:18.462Z,47.74
2016-08-14T11:48:33.415Z,47.16
2016-08-14T11:49:18.520Z,46.77
2016-08-14T11:51:18.583Z,47.09
2016-08-14T11:52:18.614Z,47.19
2016-08-14T11:53:18.642Z,46.8
2016-08-14T11:54:18.685Z,47.09
2016-08-14T11:55:18.704Z,46.82
2016-08-14T11:56:18.741Z,46.14
2016-08-14T11:57:18.768Z,46.89
2016-08-14T11:58:18.800Z,47.47
2016-08-14T11:59:18.825Z,46.92
2016-08-14T12:00:18.858Z,46.41
2016-08-14T12:01:18.891Z,46.43
2016-08-14T12:02:18.920Z,46.82
2016-08-14T12:03:18.949Z,47.02
2016-08-14T12:04:18.987Z,45.75
2016-08-14T12:06:19.043Z,45.75
2016-08-14T12:07:19.073Z,45.65
2016-08-14T12:08:19.100Z,44.32
2016-08-14T12:09:19.142Z,45.64
2016-08-14T12:10:19.167Z,45.32
2016-08-14T12:11:19.201Z,45.44
2016-08-14T12:12:19.230Z,45.34
2016-08-14T12:13:19.260Z,44.3
2016-08-14T12:14:19.290Z,44.32
2016-08-14T12:15:19.320Z,43.26
2016-08-14T12:16:19.355Z,43.06
2016-08-14T12:17:19.384Z,43.26
2016-08-14T12:18:19.408Z,43.26
2016-08-14T12:19:19.442Z,43.06
2016-08-14T12:20:34.396Z,42.48
2016-08-14T12:22:19.533Z,42.5
2016-08-14T12:23:19.569Z,42.86
2016-08-14T12:24:19.596Z,42.29
2016-08-14T12:25:19.624Z,42.29
2016-08-14T12:26:19.659Z,42.85
2016-08-14T12:27:19.689Z,41.99
2016-08-14T12:28:19.718Z,41.51
2016-08-14T12:29:19.750Z,42.26
2016-08-14T12:30:19.782Z,42.94
2016-08-14T12:31:19.816Z,43.02
2016-08-14T12:32:19.839Z,43.58
2016-08-14T12:33:20.572Z,44.06
2016-08-14T12:34:19.903Z,44.64
2016-08-14T12:35:19.938Z,45.68
2016-08-14T12:36:34.891Z,47.11
2016-08-14T12:37:20.705Z,46.92
2016-08-14T12:38:20.029Z,46.42
2016-08-14T12:39:20.059Z,47.38
2016-08-14T12:40:20.087Z,47.11
2016-08-14T12:41:20.115Z,46.83
2016-08-14T12:42:20.153Z,45.08
2016-08-14T12:43:20.193Z,45.28
2016-08-14T12:44:20.910Z,45.95
2016-08-14T12:45:20.237Z,45.18
2016-08-14T12:46:20.269Z,45.76
2016-08-14T12:47:20.299Z,45.1
2016-08-14T12:48:20.332Z,44.16
2016-08-14T12:49:20.361Z,44.64
2016-08-14T12:50:20.393Z,44.35
2016-08-14T12:52:35.376Z,45.47
2016-08-14T12:53:20.483Z,46.08
2016-08-14T12:54:20.511Z,45.3
2016-08-14T12:55:20.543Z,44.54
2016-08-14T12:56:20.575Z,45.1
2016-08-14T12:57:20.601Z,43.68
2016-08-14T12:58:20.631Z,43.68
2016-08-14T12:59:20.659Z,44.4
2016-08-14T13:00:20.693Z,45.3
2016-08-14T13:01:20.719Z,45.2
2016-08-14T13:02:20.756Z,43.48
2016-08-14T13:03:20.783Z,43.96
2016-08-14T13:04:20.812Z,44.26
2016-08-14T13:06:20.873Z,44.72
2016-08-14T13:08:35.857Z,44.84
2016-08-14T13:09:20.962Z,43.58
2016-08-14T13:10:20.995Z,44.06
2016-08-14T13:11:21.021Z,43.96
2016-08-14T13:12:21.049Z,43.58
2016-08-14T13:13:21.084Z,43.77
2016-08-14T13:14:21.109Z,43.58
2016-08-14T13:15:21.141Z,43.87
2016-08-14T13:16:21.173Z,43.85
2016-08-14T13:17:21.208Z,44.04
2016-08-14T13:18:21.229Z,44.13
2016-08-14T13:19:21.276Z,44.6
2016-08-14T13:20:21.304Z,45.37
2016-08-14T13:21:21.321Z,45.66
2016-08-14T13:22:21.357Z,44.98
2016-08-14T13:23:36.310Z,45.37
2016-08-14T13:24:21.416Z,45.66
2016-08-14T13:26:21.475Z,46.73
2016-08-14T13:27:21.506Z,46.25
2016-08-14T13:28:21.537Z,46.61
2016-08-14T13:29:21.564Z,46.51
2016-08-14T13:30:21.598Z,46.42
2016-08-14T13:31:21.635Z,47.07
2016-08-14T13:32:21.655Z,47.07
2016-08-14T13:33:21.682Z,47.26
2016-08-14T13:34:21.715Z,47.07
2016-08-14T13:35:21.745Z,47.38
2016-08-14T13:36:21.787Z,46.83
2016-08-14T13:37:21.802Z,45.66
2016-08-14T13:38:21.885Z,45.86
2016-08-14T13:39:21.864Z,46.15
2016-08-14T13:40:21.888Z,46.73